Time;durP1;ratioP1;P1;durP2;ratioP2;P2;SDS_P1;SDS_P2;PMS_P1;PMS_P2;Temp;Humidity;BMP_temperature;BMP_pressure;BME280_temperature;BME280_humidity;BME280_pressure;Samples;Min_cycle;Max_cycle;Signal;HPM_P1;HPM_P2
2023/03/16 00:00:00;;;;;;;28.83;14.00;;;;;;;19.33;59.03;98498.69;5066500;28;20060;-63
2023/03/16 00:02:43;;;;;;;28.33;12.38;;;;;;;19.27;58.63;98498.66;5066045;28;20102;-62
2023/03/16 00:05:31;;;;;;;23.98;12.52;;;;;;;19.28;60.13;98505.66;5065662;28;20051;-63
2023/03/16 00:08:26;;;;;;;32.00;12.50;;;;;;;19.21;59.02;98502.31;5050717;28;20131;-63
2023/03/16 00:11:02;;;;;;;29.00;13.77;;;;;;;19.11;58.26;98514.84;5065068;28;20115;-64
2023/03/16 00:13:57;;;;;;;26.63;14.02;;;;;;;19.12;59.08;98519.94;5033482;28;20045;-63
2023/03/16 00:16:34;;;;;;;28.45;12.55;;;;;;;19.13;60.39;98518.09;5054734;28;20056;-65
2023/03/16 00:19:37;;;;;;;27.60;11.75;;;;;;;19.15;59.66;98527.53;5065606;28;20051;-63
2023/03/16 00:22:13;;;;;;;23.23;12.88;;;;;;;19.13;59.77;98526.13;5065458;28;20800;-65
2023/03/16 00:25:08;;;;;;;25.67;12.73;;;;;;;19.12;60.31;98524.50;5065536;28;20047;-62
2023/03/16 00:27:44;;;;;;;26.13;12.20;;;;;;;19.11;60.66;98525.59;5065774;28;20048;-61
2023/03/16 00:30:32;;;;;;;27.27;13.85;;;;;;;19.06;61.00;98528.22;5050850;28;20048;-63
2023/03/16 00:33:21;;;;;;;29.13;13.40;;;;;;;19.02;60.41;98533.28;5046367;28;20113;-62
2023/03/16 00:36:08;;;;;;;28.25;13.95;;;;;;;19.02;61.25;98535.97;5066117;28;20051;-62
2023/03/16 00:38:56;;;;;;;30.53;14.93;;;;;;;19.02;61.63;98529.78;5059020;28;20491;-61
2023/03/16 00:41:38;;;;;;;27.38;14.50;;;;;;;19.03;61.44;98540.25;5052710;28;20287;-63
2023/03/16 00:44:27;;;;;;;33.05;14.32;;;;;;;19.01;61.35;98542.38;5026618;28;20067;-61
2023/03/16 00:47:16;;;;;;;29.35;15.18;;;;;;;18.99;61.25;98539.13;5028028;28;20472;-63
2023/03/16 00:49:58;;;;;;;28.40;14.27;;;;;;;18.98;61.22;98542.91;5051455;28;20048;-64
2023/03/16 00:52:54;;;;;;;27.92;14.38;;;;;;;18.97;60.47;98551.19;5054875;28;20127;-63
2023/03/16 00:55:31;;;;;;;29.35;15.75;;;;;;;18.98;61.16;98547.44;5034682;28;20480;-61
2023/03/16 00:58:19;;;;;;;32.72;13.70;;;;;;;18.98;61.07;98552.81;5061557;28;20044;-62
2023/03/16 01:01:01;;;;;;;31.67;14.50;;;;;;;18.97;61.38;98552.00;5046727;28;20028;-61
2023/03/16 01:03:49;;;;;;;32.60;14.80;;;;;;;19.00;61.31;98556.84;5037859;28;20068;-62
2023/03/16 01:06:31;;;;;;;31.98;14.60;;;;;;;19.01;61.37;98546.94;5035238;28;20054;-62
2023/03/16 01:09:21;;;;;;;27.63;13.48;;;;;;;19.02;61.97;98560.13;5045207;28;20122;-61
2023/03/16 01:12:05;;;;;;;29.08;14.82;;;;;;;18.97;61.82;98561.94;5043197;28;20045;-65
2023/03/16 01:14:54;;;;;;;28.98;13.90;;;;;;;18.93;62.46;98561.63;5046859;28;20040;-64
2023/03/16 01:17:43;;;;;;;36.75;14.32;;;;;;;18.93;62.55;98567.00;5034933;28;20110;-64
2023/03/16 01:20:25;;;;;;;29.27;15.05;;;;;;;18.84;63.10;98571.16;5019435;28;20051;-64
2023/03/16 01:23:13;;;;;;;39.85;14.63;;;;;;;18.81;63.68;98574.31;5027136;28;20055;-65
2023/03/16 01:26:02;;;;;;;35.55;14.27;;;;;;;18.83;63.64;98580.25;5047720;28;20033;-63
2023/03/16 01:28:44;;;;;;;33.10;15.23;;;;;;;18.87;62.92;98585.94;5058199;28;20057;-63
2023/03/16 01:31:41;;;;;;;32.78;15.93;;;;;;;18.82;63.23;98576.75;5042298;28;20106;-66
2023/03/16 01:34:17;;;;;;;32.67;14.77;;;;;;;18.87;63.26;98581.38;5045225;28;20075;-64
2023/03/16 01:37:06;;;;;;;38.30;16.40;;;;;;;19.11;63.53;98584.66;5064521;28;20057;-64
2023/03/16 01:39:56;;;;;;;48.38;20.52;;;;;;;19.08;61.13;98594.00;5055354;28;20044;-63
2023/03/16 01:42:54;;;;;;;48.70;22.73;;;;;;;19.08;61.90;98593.19;5044421;28;20116;-63
2023/03/16 01:46:13;;;;;;;48.83;22.02;;;;;;;19.27;62.56;98602.56;5026075;28;20044;-65
2023/03/16 01:49:24;;;;;;;56.17;25.92;;;;;;;19.32;62.07;98597.25;5043159;28;20047;-64
2023/03/16 01:52:18;;;;;;;58.53;28.50;;;;;;;19.29;61.49;98603.91;5047881;28;20094;-61
2023/03/16 01:55:14;;;;;;;61.70;27.27;;;;;;;19.33;62.27;98609.63;5046064;28;20044;-63
2023/03/16 01:57:56;;;;;;;64.28;29.85;;;;;;;19.43;61.28;98606.25;5046202;28;20036;-64
2023/03/16 02:00:47;;;;;;;67.68;30.67;;;;;;;19.55;61.15;98617.69;5063831;28;20043;-63
2023/03/16 02:03:33;;;;;;;71.15;32.10;;;;;;;19.62;60.87;98619.09;5028118;28;20078;-63
2023/03/16 02:06:27;;;;;;;58.45;31.60;;;;;;;19.74;60.47;98621.63;5034225;28;20396;-64
2023/03/16 02:09:10;;;;;;;62.78;31.52;;;;;;;19.84;60.57;98616.38;5025632;28;20069;-62
2023/03/16 02:12:00;;;;;;;65.53;30.98;;;;;;;19.92;59.84;98629.34;5054233;28;20041;-62
2023/03/16 02:14:48;;;;;;;69.03;34.15;;;;;;;20.04;59.84;98630.00;5045900;28;20040;-66
2023/03/16 02:17:39;;;;;;;75.60;34.38;;;;;;;20.18;56.78;98636.56;5027447;28;20106;-62
2023/03/16 02:20:41;;;;;;;69.82;31.25;;;;;;;20.47;56.80;98637.13;5064494;28;20435;-64
2023/03/16 02:23:31;;;;;;;63.80;29.10;;;;;;;21.24;55.80;98643.81;5042815;28;20467;-63
2023/03/16 02:26:15;;;;;;;59.72;29.42;;;;;;;21.97;54.12;98655.38;5057416;28;20048;-63
2023/03/16 02:29:26;;;;;;;51.88;25.77;;;;;;;22.56;51.71;98655.69;5050573;28;20140;-62
2023/03/16 02:32:10;;;;;;;55.95;24.83;;;;;;;23.13;50.69;98661.56;5065308;28;20668;-64
2023/03/16 02:35:01;;;;;;;50.65;23.95;;;;;;;23.68;47.07;98668.66;5066308;28;20344;-63
2023/03/16 02:37:42;;;;;;;48.92;23.33;;;;;;;24.07;45.74;98673.31;5045777;28;20087;-63
2023/03/16 02:40:38;;;;;;;45.90;22.83;;;;;;;24.20;46.34;98671.91;5026115;28;20045;-62
2023/03/16 02:43:38;;;;;;;48.85;25.02;;;;;;;23.91;45.58;98680.69;5048506;28;20053;-62
2023/03/16 02:46:27;;;;;;;49.75;24.27;;;;;;;24.51;45.28;98679.53;5049752;28;20051;-62
2023/03/16 02:49:30;;;;;;;43.40;24.77;;;;;;;24.22;46.16;98680.53;5067638;28;20049;-63
2023/03/16 02:52:07;;;;;;;43.10;19.80;;;;;;;24.83;43.66;98686.25;5056484;28;20064;-63
2023/03/16 02:54:55;;;;;;;40.58;19.85;;;;;;;24.56;43.53;98703.81;5041964;28;20045;-63
2023/03/16 02:57:36;;;;;;;32.10;18.67;;;;;;;25.33;45.17;98703.94;5047227;28;20052;-63
2023/03/16 03:00:32;;;;;;;38.20;20.60;;;;;;;25.02;42.36;98708.88;5029121;28;20049;-64
2023/03/16 03:03:08;;;;;;;33.63;16.25;;;;;;;24.85;44.05;98705.75;5043929;28;20045;-62
2023/03/16 03:05:56;;;;;;;32.00;14.93;;;;;;;25.35;42.09;98707.19;5045724;28;20052;-63
2023/03/16 03:08:41;;;;;;;31.60;14.20;;;;;;;26.08;41.23;98701.38;5028938;28;20055;-62
2023/03/16 03:11:37;;;;;;;29.63;14.23;;;;;;;24.95;42.16;98713.84;5028870;28;20138;-65
2023/03/16 03:14:15;;;;;;;27.33;15.07;;;;;;;25.42;42.05;98704.94;5009515;28;20119;-64
2023/03/16 03:17:06;;;;;;;29.92;15.80;;;;;;;25.15;45.36;98710.09;5027565;28;20056;-63
2023/03/16 03:19:47;;;;;;;37.42;15.45;;;;;;;25.33;42.22;98709.38;5025714;28;20068;-63
2023/03/16 03:22:36;;;;;;;27.52;14.27;;;;;;;24.15;43.27;98719.56;5054168;28;20480;-63
2023/03/16 03:25:21;;;;;;;27.27;15.40;;;;;;;24.44;44.41;98721.53;5047118;28;20059;-63
2023/03/16 03:28:10;;;;;;;28.63;14.75;;;;;;;24.87;45.63;98728.00;5007927;28;20041;-62
2023/03/16 03:30:52;;;;;;;38.42;14.93;;;;;;;24.82;43.15;98730.72;5047163;28;20052;-63
2023/03/16 03:33:47;;;;;;;31.52;13.35;;;;;;;24.87;43.51;98725.28;5044030;28;20416;-64
2023/03/16 03:36:23;;;;;;;22.85;11.18;;;;;;;24.88;42.42;98727.69;5060368;28;20488;-64
2023/03/16 03:39:12;;;;;;;19.10;10.45;;;;;;;24.89;43.96;98723.09;5047873;28;20072;-63
2023/03/16 03:41:56;;;;;;;33.75;10.52;;;;;;;24.86;43.25;98727.19;5039641;28;20056;-65
2023/03/16 03:44:51;;;;;;;21.92;10.23;;;;;;;24.87;43.72;98730.72;5021596;28;20049;-64
2023/03/16 03:47:27;;;;;;;20.20;9.63;;;;;;;24.85;43.72;98719.31;5024984;28;20128;-63
2023/03/16 03:50:25;;;;;;;17.75;9.75;;;;;;;24.80;43.03;98719.34;5039433;28;20044;-61
2023/03/16 03:53:33;;;;;;;19.30;8.80;;;;;;;25.04;43.42;98715.66;5042260;28;20064;-63
2023/03/16 03:56:23;;;;;;;19.30;9.30;;;;;;;25.11;42.52;98709.88;5043623;28;20153;-63
2023/03/16 03:59:17;;;;;;;21.42;10.15;;;;;;;24.88;43.63;98716.88;5028405;28;20049;-64
2023/03/16 04:02:26;;;;;;;13.63;8.40;;;;;;;25.38;44.33;98725.59;5027781;28;20126;-63
2023/03/16 04:05:27;;;;;;;15.57;6.47;;;;;;;25.43;42.42;98725.53;5027750;28;20207;-63
2023/03/16 04:08:10;;;;;;;15.27;5.70;;;;;;;25.49;43.28;98730.59;5046093;28;20144;-65
2023/03/16 04:11:05;;;;;;;9.80;5.57;;;;;;;25.56;42.08;98732.19;5029557;28;20123;-64
2023/03/16 04:13:41;;;;;;;14.23;4.88;;;;;;;25.57;42.87;98736.53;5045472;28;20117;-63
2023/03/16 04:16:36;;;;;;;13.45;4.93;;;;;;;25.72;43.36;98731.72;5025753;28;20072;-64
2023/03/16 04:19:13;;;;;;;12.00;5.65;;;;;;;25.41;40.71;98749.41;5044176;28;20493;-65
2023/03/16 04:22:09;;;;;;;11.00;5.35;;;;;;;25.44;40.71;98738.81;5026827;28;20059;-62
2023/03/16 04:24:45;;;;;;;12.20;5.70;;;;;;;25.57;41.97;98737.34;5025259;28;20052;-64
2023/03/16 04:27:41;;;;;;;10.82;6.10;;;;;;;25.90;41.54;98741.00;5008329;28;20053;-64
2023/03/16 04:30:18;;;;;;;9.75;7.43;;;;;;;26.15;41.67;98743.38;5008271;28;20065;-64
2023/03/16 04:33:26;;;;;;;17.02;6.90;;;;;;;26.48;41.75;98747.00;5038584;28;20060;-64
2023/03/16 04:36:08;;;;;;;11.68;6.72;;;;;;;26.83;42.18;98742.91;5013293;28;20041;-66
2023/03/16 04:38:58;;;;;;;14.50;7.15;;;;;;;26.38;40.05;98749.06;5027159;28;20053;-64
2023/03/16 04:41:40;;;;;;;20.92;8.65;;;;;;;26.48;42.08;98760.56;5037672;28;20116;-65
2023/03/16 04:44:31;;;;;;;16.35;8.80;;;;;;;26.94;39.46;98757.97;5023790;28;20555;-65
2023/03/16 04:47:22;;;;;;;17.75;9.40;;;;;;;26.83;41.84;98760.00;5026656;28;20150;-64
2023/03/16 04:50:18;;;;;;;19.23;10.07;;;;;;;27.43;39.17;98765.53;5057390;28;20044;-66
2023/03/16 04:53:07;;;;;;;22.65;11.52;;;;;;;27.84;40.35;98764.78;5060840;28;20052;-64
2023/03/16 04:56:02;;;;;;;21.70;13.95;;;;;;;28.60;37.73;98766.63;5045671;28;20486;-65
2023/03/16 04:59:01;;;;;;;17.10;8.55;;;;;;;27.89;36.66;98768.19;5046204;28;20048;-66
2023/03/16 05:02:03;;;;;;;14.95;7.53;;;;;;;27.94;36.03;98775.44;5058924;28;20063;-67
2023/03/16 05:04:58;;;;;;;12.88;5.28;;;;;;;27.72;36.95;98778.06;5010604;28;20079;-66
2023/03/16 05:07:35;;;;;;;11.77;5.43;;;;;;;27.91;39.13;98779.59;5027366;28;20064;-66
2023/03/16 05:10:30;;;;;;;11.90;5.00;;;;;;;28.13;38.89;98778.88;5064254;28;20507;-63
2023/03/16 05:13:06;;;;;;;19.70;6.78;;;;;;;28.25;38.43;98778.34;5036196;28;20052;-65
2023/03/16 05:16:10;;;;;;;16.90;5.75;;;;;;;29.11;35.60;98770.88;5046957;28;20036;-65
2023/03/16 05:18:46;;;;;;;15.27;5.57;;;;;;;28.99;36.32;98780.44;5046808;28;20052;-64
2023/03/16 05:21:38;;;;;;;11.05;4.78;;;;;;;29.31;36.01;98771.19;5046879;28;20498;-66
2023/03/16 05:24:22;;;;;;;6.55;4.80;;;;;;;29.73;36.54;98772.50;5044050;28;20052;-64
2023/03/16 05:27:17;;;;;;;8.80;5.47;;;;;;;28.69;36.09;98770.22;5061706;28;20052;-65
2023/03/16 05:29:53;;;;;;;10.27;5.35;;;;;;;29.22;35.13;98769.50;5044069;28;20087;-66
2023/03/16 05:32:42;;;;;;;13.15;5.78;;;;;;;29.61;35.37;98774.22;5028822;28;20044;-66
2023/03/16 05:35:23;;;;;;;13.18;6.97;;;;;;;29.69;35.40;98770.72;5026734;28;20458;-69
2023/03/16 05:38:22;;;;;;;14.35;6.10;;;;;;;29.61;34.98;98766.03;5046087;28;20701;-66
2023/03/16 05:41:00;;;;;;;8.95;6.22;;;;;;;29.90;34.04;98771.78;5045709;28;20049;-66
2023/03/16 05:44:08;;;;;;;11.38;5.88;;;;;;;30.63;34.97;98767.38;5062156;28;20052;-67
2023/03/16 05:47:14;;;;;;;13.23;6.57;;;;;;;30.75;34.30;98764.81;5027690;28;20060;-67
2023/03/16 05:50:11;;;;;;;20.92;6.95;;;;;;;29.81;34.81;98763.53;5042380;28;20076;-68
2023/03/16 05:52:59;;;;;;;13.50;6.38;;;;;;;29.73;36.51;98758.84;5032077;28;20052;-66
2023/03/16 05:55:49;;;;;;;16.85;6.75;;;;;;;30.20;34.81;98759.94;5047292;28;20048;-68
2023/03/16 05:58:41;;;;;;;14.90;6.53;;;;;;;30.69;40.32;98753.22;5044191;28;20040;-67
2023/03/16 06:01:32;;;;;;;18.00;6.90;;;;;;;30.38;36.36;98755.28;5044494;28;20321;-66
2023/03/16 06:04:15;;;;;;;13.77;7.03;;;;;;;30.36;34.18;98751.28;5025392;28;20136;-68
2023/03/16 06:07:04;;;;;;;12.38;7.68;;;;;;;30.19;36.88;98747.41;5038218;28;20566;-66
2023/03/16 06:09:55;;;;;;;12.38;6.55;;;;;;;30.63;36.11;98743.56;5051829;28;20066;-66
2023/03/16 06:12:37;;;;;;;16.20;7.57;;;;;;;30.69;35.20;98746.97;5030156;28;20067;-64
2023/03/16 06:15:33;;;;;;;12.18;6.75;;;;;;;30.28;34.57;98737.28;5025388;28;20510;-64
2023/03/16 06:18:09;;;;;;;17.88;7.13;;;;;;;30.32;36.16;98740.97;5045274;28;20052;-64
2023/03/16 06:21:04;;;;;;;12.45;7.22;;;;;;;30.16;36.41;98737.13;5047245;28;20076;-68
2023/03/16 06:23:40;;;;;;;13.32;7.32;;;;;;;30.30;36.12;98735.03;5045871;28;20041;-67
2023/03/16 06:26:30;;;;;;;;;;;;;;;30.28;36.71;98737.28;5043218;28;20144;-66
2023/03/16 06:29:14;;;;;;;18.60;7.70;;;;;;;30.65;37.09;98735.88;5036922;28;19924;-65
2023/03/16 06:32:03;;;;;;;15.70;7.65;;;;;;;29.87;41.02;98736.88;5046812;28;20062;-64
2023/03/16 06:34:45;;;;;;;19.05;8.05;;;;;;;30.44;41.49;98732.16;5063880;28;20048;-66
2023/03/16 06:37:34;;;;;;;14.93;8.75;;;;;;;30.40;40.28;98725.72;5064086;28;20037;-66
2023/03/16 06:40:42;;;;;;;17.30;8.70;;;;;;;30.19;40.33;98725.53;5052523;28;20067;-66
2023/03/16 06:43:37;;;;;;;18.67;8.77;;;;;;;30.05;37.43;98719.41;5035872;28;20041;-64
2023/03/16 06:46:13;;;;;;;17.08;9.57;;;;;;;30.29;36.76;98718.94;5063539;28;20048;-66
2023/03/16 06:49:11;;;;;;;16.90;9.68;;;;;;;30.02;36.15;98717.31;5046566;28;20052;-66
2023/03/16 06:52:00;;;;;;;18.73;9.20;;;;;;;30.18;36.13;98712.22;5046569;28;20053;-67
2023/03/16 06:54:49;;;;;;;14.02;8.30;;;;;;;29.82;37.25;98707.00;5044190;28;20052;-65
2023/03/16 06:57:34;;;;;;;15.85;8.75;;;;;;;30.01;37.52;98698.50;5042988;28;20142;-67
2023/03/16 07:00:24;;;;;;;14.82;8.35;;;;;;;30.22;36.98;98697.59;5039589;28;20045;-66
2023/03/16 07:03:06;;;;;;;14.75;9.15;;;;;;;29.99;37.08;98695.31;5064188;28;20048;-66
2023/03/16 07:06:05;;;;;;;19.00;8.88;;;;;;;30.34;39.18;98686.00;5029288;28;20817;-66
2023/03/16 07:08:48;;;;;;;16.25;8.70;;;;;;;30.65;36.76;98683.09;5030396;28;20565;-66
2023/03/16 07:11:37;;;;;;;18.27;10.30;;;;;;;30.31;35.29;98675.72;5039915;28;20036;-65
2023/03/16 07:14:22;;;;;;;20.27;8.98;;;;;;;30.46;37.27;98677.16;5048739;28;20054;-66
2023/03/16 07:17:12;;;;;;;18.20;8.45;;;;;;;30.49;36.00;98679.28;5049180;28;20049;-66
2023/03/16 07:20:09;;;;;;;14.82;8.80;;;;;;;29.73;36.98;98676.13;5067763;28;20041;-65
2023/03/16 07:22:45;;;;;;;18.60;9.02;;;;;;;30.13;34.86;98664.00;5014214;28;20041;-64
2023/03/16 07:25:39;;;;;;;14.52;8.90;;;;;;;30.38;37.38;98651.44;5053988;28;20132;-67
2023/03/16 07:28:18;;;;;;;20.88;9.00;;;;;;;30.52;33.76;98656.75;5038931;28;20820;-68
2023/03/16 07:31:14;;;;;;;13.50;8.90;;;;;;;30.52;36.67;98651.28;5065673;28;20137;-68
2023/03/16 07:33:50;;;;;;;15.90;8.02;;;;;;;30.54;34.81;98655.28;5049467;28;20044;-67
2023/03/16 07:36:51;;;;;;;16.50;8.55;;;;;;;30.13;35.72;98644.06;5047103;28;20047;-66
2023/03/16 07:39:35;;;;;;;15.40;9.07;;;;;;;30.10;35.93;98647.41;5047172;28;20114;-67
2023/03/16 07:42:34;;;;;;;11.27;8.75;;;;;;;30.03;34.50;98639.72;5029156;28;20103;-66
2023/03/16 07:45:13;;;;;;;14.07;8.00;;;;;;;30.20;36.22;98630.72;5046210;28;20055;-65
2023/03/16 07:48:03;;;;;;;27.65;10.50;;;;;;;30.22;37.55;98626.53;5065911;28;20048;-66
2023/03/16 07:51:03;;;;;;;17.88;9.65;;;;;;;30.00;34.90;98623.19;5035001;28;20532;-66
2023/03/16 07:53:54;;;;;;;16.55;8.48;;;;;;;29.76;35.53;98618.13;5028822;28;20080;-67
2023/03/16 07:56:44;;;;;;;17.60;8.07;;;;;;;29.83;35.79;98607.53;5028571;28;20546;-65
2023/03/16 07:59:42;;;;;;;15.75;8.77;;;;;;;29.93;35.50;98601.78;5028530;28;20052;-65
2023/03/16 08:02:30;;;;;;;14.35;7.82;;;;;;;29.76;36.97;98596.28;5036656;28;20052;-67
2023/03/16 08:05:16;;;;;;;17.45;8.43;;;;;;;29.93;34.17;98593.59;5027471;28;20045;-66
2023/03/16 08:08:14;;;;;;;15.52;7.70;;;;;;;29.85;34.98;98588.91;5027844;28;20126;-67
2023/03/16 08:10:56;;;;;;;16.13;8.68;;;;;;;29.93;36.09;98585.41;5021648;28;20045;-67
2023/03/16 08:13:59;;;;;;;10.10;7.05;;;;;;;29.86;34.45;98572.22;5027610;28;20060;-68
2023/03/16 08:17:11;;;;;;;14.30;7.75;;;;;;;30.05;33.61;98571.13;5015595;28;20060;-66
2023/03/16 08:20:00;;;;;;;17.50;9.00;;;;;;;30.00;34.66;98563.09;5028878;28;20063;-66
2023/03/16 08:22:45;;;;;;;14.55;7.88;;;;;;;29.99;35.58;98556.81;5026992;28;20133;-66
2023/03/16 08:25:39;;;;;;;15.45;7.88;;;;;;;30.02;36.14;98560.81;5008112;28;20045;-66
2023/03/16 08:28:24;;;;;;;11.02;7.72;;;;;;;29.93;35.40;98547.16;5028642;28;20056;-68
2023/03/16 08:31:16;;;;;;;12.52;7.50;;;;;;;29.98;35.13;98544.28;5028330;28;20482;-66
2023/03/16 08:34:14;;;;;;;13.20;7.43;;;;;;;30.05;33.51;98550.03;5027460;28;20146;-63
2023/03/16 08:37:05;;;;;;;14.60;7.80;;;;;;;29.98;33.57;98544.28;5045169;28;20572;-65
2023/03/16 08:39:50;;;;;;;14.27;7.75;;;;;;;29.91;33.53;98537.69;5028358;28;20049;-66
2023/03/16 08:42:38;;;;;;;22.00;8.82;;;;;;;29.62;34.90;98533.66;5028043;28;20060;-67
2023/03/16 08:45:22;;;;;;;29.15;10.25;;;;;;;29.70;34.56;98526.56;5027147;28;20636;-65
2023/03/16 08:48:13;;;;;;;15.02;8.63;;;;;;;29.91;35.43;98524.84;5040932;28;20729;-66
2023/03/16 08:51:06;;;;;;;13.07;8.20;;;;;;;29.82;35.60;98518.56;5038665;28;20037;-64
2023/03/16 08:53:55;;;;;;;13.55;8.18;;;;;;;29.83;35.40;98510.03;5038683;28;20125;-65
2023/03/16 08:56:44;;;;;;;13.82;8.00;;;;;;;29.64;35.27;98504.13;5045552;28;20115;-65
2023/03/16 08:59:39;;;;;;;12.10;7.45;;;;;;;29.71;36.10;98503.63;5036017;28;20041;-65
2023/03/16 09:02:15;;;;;;;15.57;7.55;;;;;;;29.70;35.48;98499.28;5044178;28;20056;-66
2023/03/16 09:05:10;;;;;;;13.52;8.05;;;;;;;29.57;35.64;98494.78;5057273;28;20118;-66
2023/03/16 09:07:46;;;;;;;19.55;8.80;;;;;;;29.57;36.55;98490.13;5065403;28;20472;-65
2023/03/16 09:10:41;;;;;;;13.10;7.35;;;;;;;29.67;36.35;98483.56;5030256;28;20036;-66
2023/03/16 09:13:16;;;;;;;15.23;7.70;;;;;;;29.51;36.51;98490.63;5049310;28;20048;-65
2023/03/16 09:16:12;;;;;;;22.98;7.63;;;;;;;29.55;37.55;98477.94;5045603;28;20127;-66
2023/03/16 09:18:48;;;;;;;14.65;7.93;;;;;;;29.41;36.57;98469.91;5051833;28;20681;-67
2023/03/16 09:21:43;;;;;;;13.70;8.00;;;;;;;29.48;36.49;98469.41;5065701;28;20139;-65
2023/03/16 09:24:20;;;;;;;15.05;7.57;;;;;;;29.50;37.66;98464.47;5050325;28;20051;-66
2023/03/16 09:27:14;;;;;;;9.60;7.85;;;;;;;29.51;37.36;98458.69;5062639;28;20071;-67
2023/03/16 09:29:51;;;;;;;13.48;7.93;;;;;;;29.42;36.31;98463.34;5047564;28;20058;-65
2023/03/16 09:32:47;;;;;;;11.27;7.45;;;;;;;29.37;36.45;98467.03;5064657;28;20036;-68
2023/03/16 09:35:24;;;;;;;17.40;7.95;;;;;;;29.34;37.11;98461.44;5046122;28;20044;-65
2023/03/16 09:38:20;;;;;;;13.70;7.40;;;;;;;29.23;36.76;98465.53;5053877;28;20048;-66
2023/03/16 09:41:07;;;;;;;18.45;8.45;;;;;;;29.20;37.54;98458.81;5064102;28;20042;-66
2023/03/16 09:44:03;;;;;;;11.18;7.60;;;;;;;29.24;36.56;98457.06;5055867;28;20049;-68
2023/03/16 09:46:44;;;;;;;14.80;8.55;;;;;;;29.28;36.22;98455.28;5062088;28;20476;-67
2023/03/16 09:49:52;;;;;;;14.80;7.85;;;;;;;29.29;35.87;98448.75;5048330;28;20131;-66
2023/03/16 09:52:56;;;;;;;12.95;7.75;;;;;;;29.26;34.61;98449.34;5064805;28;20048;-67
2023/03/16 09:55:47;;;;;;;10.73;7.50;;;;;;;29.16;35.95;98457.06;5064806;28;20053;-66
2023/03/16 09:58:31;;;;;;;18.73;8.02;;;;;;;29.22;36.49;98451.09;5028960;28;20053;-65
2023/03/16 10:01:45;;;;;;;16.42;8.38;;;;;;;29.14;35.20;98453.81;5065382;28;20063;-65
2023/03/16 10:04:56;;;;;;;15.93;8.35;;;;;;;29.12;36.19;98454.13;5057151;28;20048;-66
2023/03/16 10:08:18;;;;;;;18.92;7.55;;;;;;;29.21;36.91;98451.44;5056771;28;20118;-66
2023/03/16 10:11:21;;;;;;;19.13;9.07;;;;;;;29.11;35.84;98452.56;5056117;28;20468;-65
2023/03/16 10:14:28;;;;;;;10.93;7.20;;;;;;;29.10;35.89;98452.84;5053412;28;20044;-66
2023/03/16 10:17:23;;;;;;;14.38;8.35;;;;;;;29.05;34.73;98444.81;5054065;28;20076;-66
2023/03/16 10:20:21;;;;;;;18.80;7.82;;;;;;;29.10;35.31;98450.94;5042133;28;20653;-66
2023/03/16 10:23:30;;;;;;;15.05;7.80;;;;;;;29.02;33.04;98447.09;5024321;28;20052;-66
2023/03/16 10:26:37;;;;;;;15.15;7.50;;;;;;;28.93;34.85;98448.19;5053312;28;20059;-66
2023/03/16 10:29:19;;;;;;;18.52;7.65;;;;;;;28.90;33.98;98437.94;5062178;28;20069;-65
2023/03/16 10:32:19;;;;;;;12.23;8.02;;;;;;;28.91;35.04;98436.78;5064028;28;20091;-69
2023/03/16 10:35:42;;;;;;;19.40;8.00;;;;;;;28.87;36.15;98435.81;5062509;28;20068;-67
2023/03/16 10:38:54;;;;;;;13.40;7.97;;;;;;;28.95;35.91;98435.03;5007313;28;20126;-65
2023/03/16 10:41:38;;;;;;;13.38;8.32;;;;;;;28.93;35.82;98434.56;5048437;28;20065;-66
2023/03/16 10:44:32;;;;;;;12.15;7.68;;;;;;;28.85;36.41;98427.16;5062001;28;20097;-66
2023/03/16 10:47:27;;;;;;;13.27;8.40;;;;;;;28.84;35.23;98422.84;5072365;28;20450;-67
2023/03/16 10:50:30;;;;;;;13.63;7.80;;;;;;;28.84;36.39;98428.28;5087382;28;20083;-64
2023/03/16 10:53:35;;;;;;;16.65;7.43;;;;;;;28.81;35.91;98428.94;5067813;28;20292;-65
2023/03/16 10:56:29;;;;;;;16.08;7.53;;;;;;;28.71;35.67;98421.03;5067531;28;20056;-65
2023/03/16 10:59:30;;;;;;;12.57;7.65;;;;;;;28.66;36.44;98427.41;5050626;28;20076;-65
2023/03/16 11:02:26;;;;;;;22.70;9.48;;;;;;;28.73;35.08;98421.50;5067046;28;20386;-65
2023/03/16 11:05:20;;;;;;;10.93;7.10;;;;;;;28.65;35.27;98419.53;5065451;28;20045;-69
2023/03/16 11:08:26;;;;;;;16.40;7.68;;;;;;;28.61;36.59;98424.84;5065027;28;20052;-67
2023/03/16 11:11:29;;;;;;;15.63;7.80;;;;;;;28.55;36.58;98421.44;5067046;28;20492;-66
2023/03/16 11:14:19;;;;;;;16.15;8.02;;;;;;;28.51;35.73;98422.41;5058575;28;20565;-66
2023/03/16 11:17:15;;;;;;;15.80;7.72;;;;;;;28.63;37.74;98427.25;5068204;28;20141;-67
2023/03/16 11:20:11;;;;;;;23.42;8.15;;;;;;;28.64;38.22;98428.84;5049448;28;20149;-67
2023/03/16 11:22:52;;;;;;;15.05;8.13;;;;;;;28.53;39.51;98423.69;5067314;28;20048;-66
2023/03/16 11:25:53;;;;;;;13.52;8.15;;;;;;;28.41;39.72;98425.44;5067126;28;20121;-65
2023/03/16 11:28:45;;;;;;;13.25;7.78;;;;;;;28.32;38.35;98435.50;5066836;28;20045;-63
2023/03/16 11:31:55;;;;;;;17.30;7.78;;;;;;;28.27;38.44;98435.63;5065904;28;20048;-65
2023/03/16 11:34:45;;;;;;;11.45;7.97;;;;;;;28.26;38.80;98440.25;5065031;28;20132;-66
2023/03/16 11:37:48;;;;;;;15.68;8.68;;;;;;;28.23;39.00;98440.91;5066252;28;20048;-65
2023/03/16 11:40:46;;;;;;;13.45;7.95;;;;;;;28.16;36.51;98435.09;5065213;28;20089;-68
2023/03/16 11:43:40;;;;;;;14.52;8.57;;;;;;;28.10;37.31;98448.03;5065265;28;20544;-65
2023/03/16 11:46:55;;;;;;;18.13;8.48;;;;;;;28.05;36.69;98444.63;5066130;28;20044;-66
2023/03/16 11:49:33;;;;;;;14.52;8.98;;;;;;;27.95;38.33;98447.59;5061810;28;20125;-65
2023/03/16 11:52:36;;;;;;;14.35;9.35;;;;;;;27.87;41.10;98440.19;5066036;28;20131;-65
2023/03/16 11:55:33;;;;;;;14.68;6.93;;;;;;;27.74;41.46;98443.81;5049502;28;20041;-65
2023/03/16 11:59:07;;;;;;;10.70;6.82;;;;;;;27.57;40.40;98453.44;5057795;28;20063;-64
2023/03/16 12:02:23;;;;;;;20.67;5.80;;;;;;;27.53;38.13;98452.44;4715433;28;10001193;-62
2023/03/16 12:05:31;;;;;;;10.73;4.70;;;;;;;27.45;38.49;98445.00;5048937;28;20044;-62
2023/03/16 12:08:23;;;;;;;11.05;5.18;;;;;;;27.30;39.58;98461.69;5048583;28;20047;-62
2023/03/16 12:11:43;;;;;;;11.27;4.53;;;;;;;27.09;40.97;98460.53;5086299;28;20471;-64
2023/03/16 12:14:56;;;;;;;18.85;5.53;;;;;;;26.89;41.81;98471.84;5059107;28;20606;-65
2023/03/16 12:17:41;;;;;;;15.25;5.63;;;;;;;26.73;42.87;98474.06;5034135;28;20038;-64
2023/03/16 12:20:38;;;;;;;16.42;5.85;;;;;;;26.64;43.02;98470.44;5033136;28;20799;-62
2023/03/16 12:23:38;;;;;;;17.38;7.18;;;;;;;26.55;41.38;98475.78;5065623;28;20052;-63
2023/03/16 12:26:29;;;;;;;10.95;6.57;;;;;;;26.47;41.45;98478.34;5065530;28;20135;-63
2023/03/16 12:29:28;;;;;;;25.63;6.95;;;;;;;26.44;41.67;98478.97;5065157;28;20052;-62
2023/03/16 12:32:45;;;;;;;19.88;7.53;;;;;;;26.36;42.29;98478.56;5045938;28;20064;-63
2023/03/16 12:35:53;;;;;;;18.70;7.65;;;;;;;26.31;43.59;98505.03;5045203;28;20491;-63
2023/03/16 12:38:52;;;;;;;33.03;8.07;;;;;;;26.08;41.77;98514.09;5065155;28;20058;-62
2023/03/16 12:42:16;;;;;;;54.85;7.70;;;;;;;25.91;40.08;98522.78;5065249;28;20063;-63
2023/03/16 12:45:36;;;;;;;47.25;6.93;;;;;;;25.70;38.43;98530.44;5064544;28;20040;-63
2023/03/16 12:48:39;;;;;;;52.08;6.93;;;;;;;25.53;37.44;98523.91;5055587;28;20076;-62
2023/03/16 12:51:44;;;;;;;62.88;7.22;;;;;;;25.32;37.77;98535.03;5028915;28;20045;-61
2023/03/16 12:54:33;;;;;;;63.17;8.15;;;;;;;25.20;39.15;98540.06;5052790;28;20053;-62
2023/03/16 12:57:25;;;;;;;53.83;6.68;;;;;;;25.03;40.18;98545.19;5031985;28;20053;-60
2023/03/16 13:00:13;;;;;;;43.08;6.80;;;;;;;24.87;39.11;98539.13;5057232;28;20040;-63
2023/03/16 13:03:02;;;;;;;37.90;5.53;;;;;;;24.75;39.42;98543.31;5061350;28;20083;-60
2023/03/16 13:05:57;;;;;;;42.15;5.93;;;;;;;24.66;39.69;98539.63;5064836;28;20056;-65
2023/03/16 13:08:49;;;;;;;31.48;5.32;;;;;;;24.61;40.69;98559.44;5061266;28;20709;-61
2023/03/16 13:11:48;;;;;;;32.47;5.85;;;;;;;24.48;39.80;98568.25;5057557;28;20061;-61
2023/03/16 13:14:53;;;;;;;31.48;5.07;;;;;;;24.33;39.08;98560.28;5063351;28;20052;-67